sensor_id;sensor_type;location;lat;lon;timestamp;temperature;humidity
20167;DHT22;10243;49.118;8.508;2022-07-18T00:01:35;17.60;83.50
20167;DHT22;10243;49.118;8.508;2022-07-18T00:04:36;17.70;85.90
20167;DHT22;10243;49.118;8.508;2022-07-18T00:07:38;17.90;87.30
20167;DHT22;10243;49.118;8.508;2022-07-18T00:10:40;17.70;85.20
20167;DHT22;10243;49.118;8.508;2022-07-18T00:13:44;17.70;84.00
20167;DHT22;10243;49.118;8.508;2022-07-18T00:16:45;17.60;84.30
20167;DHT22;10243;49.118;8.508;2022-07-18T00:19:48;17.50;84.90
20167;DHT22;10243;49.118;8.508;2022-07-18T00:22:50;17.40;85.40
20167;DHT22;10243;49.118;8.508;2022-07-18T00:25:52;17.30;85.20
20167;DHT22;10243;49.118;8.508;2022-07-18T00:28:55;17.30;85.50
20167;DHT22;10243;49.118;8.508;2022-07-18T00:31:57;17.20;85.80
20167;DHT22;10243;49.118;8.508;2022-07-18T00:35:00;17.20;86.40
20167;DHT22;10243;49.118;8.508;2022-07-18T00:38:02;17.20;86.70
20167;DHT22;10243;49.118;8.508;2022-07-18T00:41:04;17.10;86.80
20167;DHT22;10243;49.118;8.508;2022-07-18T00:44:16;17.00;89.10
20167;DHT22;10243;49.118;8.508;2022-07-18T00:47:17;17.00;89.20
20167;DHT22;10243;49.118;8.508;2022-07-18T00:50:21;17.00;89.00
20167;DHT22;10243;49.118;8.508;2022-07-18T00:53:23;17.00;88.50
20167;DHT22;10243;49.118;8.508;2022-07-18T00:56:25;17.20;89.70
20167;DHT22;10243;49.118;8.508;2022-07-18T00:59:29;17.40;89.30
20167;DHT22;10243;49.118;8.508;2022-07-18T01:02:45;17.60;88.40
20167;DHT22;10243;49.118;8.508;2022-07-18T01:05:47;17.80;88.10
20167;DHT22;10243;49.118;8.508;2022-07-18T01:08:49;18.00;87.20
20167;DHT22;10243;49.118;8.508;2022-07-18T01:11:51;17.90;87.90
20167;DHT22;10243;49.118;8.508;2022-07-18T01:14:55;17.80;88.10
20167;DHT22;10243;49.118;8.508;2022-07-18T01:17:58;17.50;86.40
20167;DHT22;10243;49.118;8.508;2022-07-18T01:21:01;17.10;88.50
20167;DHT22;10243;49.118;8.508;2022-07-18T01:24:04;16.90;89.70
20167;DHT22;10243;49.118;8.508;2022-07-18T01:27:07;16.80;90.20
20167;DHT22;10243;49.118;8.508;2022-07-18T01:30:09;16.90;90.40
20167;DHT22;10243;49.118;8.508;2022-07-18T01:33:11;17.00;90.80
20167;DHT22;10243;49.118;8.508;2022-07-18T01:36:14;17.10;91.40
20167;DHT22;10243;49.118;8.508;2022-07-18T01:39:16;17.30;91.80
20167;DHT22;10243;49.118;8.508;2022-07-18T01:42:18;17.10;91.40
20167;DHT22;10243;49.118;8.508;2022-07-18T01:45:21;16.70;91.30
20167;DHT22;10243;49.118;8.508;2022-07-18T01:48:23;16.50;91.50
20167;DHT22;10243;49.118;8.508;2022-07-18T01:51:26;16.40;92.00
20167;DHT22;10243;49.118;8.508;2022-07-18T01:54:31;16.40;92.10
20167;DHT22;10243;49.118;8.508;2022-07-18T01:57:33;16.30;92.70
20167;DHT22;10243;49.118;8.508;2022-07-18T02:00:35;16.20;92.80
20167;DHT22;10243;49.118;8.508;2022-07-18T02:03:37;16.20;93.50
20167;DHT22;10243;49.118;8.508;2022-07-18T02:06:41;16.30;94.10
20167;DHT22;10243;49.118;8.508;2022-07-18T02:09:43;16.50;93.60
20167;DHT22;10243;49.118;8.508;2022-07-18T02:12:45;16.30;92.90
20167;DHT22;10243;49.118;8.508;2022-07-18T02:15:47;16.20;93.80
20167;DHT22;10243;49.118;8.508;2022-07-18T02:18:49;16.20;94.00
20167;DHT22;10243;49.118;8.508;2022-07-18T02:21:52;16.10;94.10
20167;DHT22;10243;49.118;8.508;2022-07-18T02:24:54;16.20;93.80
20167;DHT22;10243;49.118;8.508;2022-07-18T02:27:56;16.10;92.80
20167;DHT22;10243;49.118;8.508;2022-07-18T02:30:58;16.20;93.80
20167;DHT22;10243;49.118;8.508;2022-07-18T02:34:00;16.40;93.60
20167;DHT22;10243;49.118;8.508;2022-07-18T02:37:03;16.50;93.70
20167;DHT22;10243;49.118;8.508;2022-07-18T02:40:07;16.60;93.70
20167;DHT22;10243;49.118;8.508;2022-07-18T02:43:09;16.70;93.60
20167;DHT22;10243;49.118;8.508;2022-07-18T02:46:11;16.70;93.60
20167;DHT22;10243;49.118;8.508;2022-07-18T02:49:13;16.70;93.50
20167;DHT22;10243;49.118;8.508;2022-07-18T02:52:29;16.90;93.70
20167;DHT22;10243;49.118;8.508;2022-07-18T02:55:31;16.80;93.70
20167;DHT22;10243;49.118;8.508;2022-07-18T02:58:33;16.70;93.80
20167;DHT22;10243;49.118;8.508;2022-07-18T03:01:35;16.60;93.90
20167;DHT22;10243;49.118;8.508;2022-07-18T03:04:37;16.70;93.60
20167;DHT22;10243;49.118;8.508;2022-07-18T03:07:41;16.80;93.20
20167;DHT22;10243;49.118;8.508;2022-07-18T03:10:42;16.80;93.00
20167;DHT22;10243;49.118;8.508;2022-07-18T03:13:44;16.80;92.80
20167;DHT22;10243;49.118;8.508;2022-07-18T03:16:46;16.70;92.90
20167;DHT22;10243;49.118;8.508;2022-07-18T03:19:48;16.60;93.20
20167;DHT22;10243;49.118;8.508;2022-07-18T03:22:51;16.50;93.20
20167;DHT22;10243;49.118;8.508;2022-07-18T03:25:53;16.50;93.20
20167;DHT22;10243;49.118;8.508;2022-07-18T03:28:55;16.40;93.70
20167;DHT22;10243;49.118;8.508;2022-07-18T03:31:57;16.20;94.30
20167;DHT22;10243;49.118;8.508;2022-07-18T03:34:59;16.10;94.70
20167;DHT22;10243;49.118;8.508;2022-07-18T03:38:02;16.30;94.70
20167;DHT22;10243;49.118;8.508;2022-07-18T03:41:05;16.30;94.30
20167;DHT22;10243;49.118;8.508;2022-07-18T03:44:07;16.40;94.00
20167;DHT22;10243;49.118;8.508;2022-07-18T03:47:09;16.50;94.00
20167;DHT22;10243;49.118;8.508;2022-07-18T03:50:11;16.30;94.00
20167;DHT22;10243;49.118;8.508;2022-07-18T03:53:15;16.20;94.20
20167;DHT22;10243;49.118;8.508;2022-07-18T03:56:16;16.10;94.20
20167;DHT22;10243;49.118;8.508;2022-07-18T03:59:18;16.00;94.20
20167;DHT22;10243;49.118;8.508;2022-07-18T04:02:20;16.00;94.50
20167;DHT22;10243;49.118;8.508;2022-07-18T04:05:22;16.00;94.30
20167;DHT22;10243;49.118;8.508;2022-07-18T04:08:25;16.10;94.20
20167;DHT22;10243;49.118;8.508;2022-07-18T04:11:27;16.20;94.00
20167;DHT22;10243;49.118;8.508;2022-07-18T04:14:29;16.40;94.10
20167;DHT22;10243;49.118;8.508;2022-07-18T04:17:31;16.60;94.00
20167;DHT22;10243;49.118;8.508;2022-07-18T04:20:34;16.90;93.30
20167;DHT22;10243;49.118;8.508;2022-07-18T04:23:38;17.10;92.80
20167;DHT22;10243;49.118;8.508;2022-07-18T04:26:39;17.30;92.40
20167;DHT22;10243;49.118;8.508;2022-07-18T04:29:41;17.60;90.90
20167;DHT22;10243;49.118;8.508;2022-07-18T04:32:44;18.00;90.30
20167;DHT22;10243;49.118;8.508;2022-07-18T04:35:46;18.10;88.90
20167;DHT22;10243;49.118;8.508;2022-07-18T04:38:49;18.30;86.80
20167;DHT22;10243;49.118;8.508;2022-07-18T04:41:51;18.30;87.10
20167;DHT22;10243;49.118;8.508;2022-07-18T04:44:53;18.50;87.30
20167;DHT22;10243;49.118;8.508;2022-07-18T04:47:55;18.40;87.40
20167;DHT22;10243;49.118;8.508;2022-07-18T04:50:57;18.40;86.00
20167;DHT22;10243;49.118;8.508;2022-07-18T04:54:00;18.50;84.50
20167;DHT22;10243;49.118;8.508;2022-07-18T04:57:03;18.70;83.80
20167;DHT22;10243;49.118;8.508;2022-07-18T05:00:07;18.90;84.60
20167;DHT22;10243;49.118;8.508;2022-07-18T05:03:09;19.10;84.20
20167;DHT22;10243;49.118;8.508;2022-07-18T05:06:11;19.10;83.00
20167;DHT22;10243;49.118;8.508;2022-07-18T05:09:14;19.10;82.20
20167;DHT22;10243;49.118;8.508;2022-07-18T05:12:16;19.30;81.60
20167;DHT22;10243;49.118;8.508;2022-07-18T05:15:20;19.40;81.60
20167;DHT22;10243;49.118;8.508;2022-07-18T05:18:23;19.50;79.30
20167;DHT22;10243;49.118;8.508;2022-07-18T05:21:25;19.60;80.30
20167;DHT22;10243;49.118;8.508;2022-07-18T05:24:28;19.50;81.00
20167;DHT22;10243;49.118;8.508;2022-07-18T05:27:30;19.50;82.00
20167;DHT22;10243;49.118;8.508;2022-07-18T05:30:32;19.50;82.80
20167;DHT22;10243;49.118;8.508;2022-07-18T05:33:34;19.50;82.50
20167;DHT22;10243;49.118;8.508;2022-07-18T05:36:36;19.60;81.80
20167;DHT22;10243;49.118;8.508;2022-07-18T05:39:40;19.70;81.00
20167;DHT22;10243;49.118;8.508;2022-07-18T05:42:42;19.80;80.70
20167;DHT22;10243;49.118;8.508;2022-07-18T05:45:44;20.10;79.10
20167;DHT22;10243;49.118;8.508;2022-07-18T05:48:46;20.20;78.70
20167;DHT22;10243;49.118;8.508;2022-07-18T05:51:48;20.60;76.20
20167;DHT22;10243;49.118;8.508;2022-07-18T05:54:51;20.80;73.50
20167;DHT22;10243;49.118;8.508;2022-07-18T05:57:53;20.90;73.60
20167;DHT22;10243;49.118;8.508;2022-07-18T06:00:55;21.00;73.80
20167;DHT22;10243;49.118;8.508;2022-07-18T06:03:57;21.10;73.30
20167;DHT22;10243;49.118;8.508;2022-07-18T06:06:59;21.20;76.30
20167;DHT22;10243;49.118;8.508;2022-07-18T06:10:04;21.30;73.70
20167;DHT22;10243;49.118;8.508;2022-07-18T06:13:06;21.30;72.60
20167;DHT22;10243;49.118;8.508;2022-07-18T06:16:09;21.40;70.70
20167;DHT22;10243;49.118;8.508;2022-07-18T06:19:11;21.40;69.40
20167;DHT22;10243;49.118;8.508;2022-07-18T06:22:13;21.50;71.60
20167;DHT22;10243;49.118;8.508;2022-07-18T06:25:16;21.50;70.60
20167;DHT22;10243;49.118;8.508;2022-07-18T06:28:18;21.60;68.90
20167;DHT22;10243;49.118;8.508;2022-07-18T06:31:20;21.70;71.20
20167;DHT22;10243;49.118;8.508;2022-07-18T06:34:22;21.80;69.60
20167;DHT22;10243;49.118;8.508;2022-07-18T06:37:24;21.80;69.30
20167;DHT22;10243;49.118;8.508;2022-07-18T06:40:27;21.90;69.80
20167;DHT22;10243;49.118;8.508;2022-07-18T06:43:29;22.00;68.80
20167;DHT22;10243;49.118;8.508;2022-07-18T06:46:31;21.90;68.90
20167;DHT22;10243;49.118;8.508;2022-07-18T06:49:33;22.00;70.00
20167;DHT22;10243;49.118;8.508;2022-07-18T06:52:37;22.00;68.40
20167;DHT22;10243;49.118;8.508;2022-07-18T06:55:40;22.10;69.70
20167;DHT22;10243;49.118;8.508;2022-07-18T06:58:42;22.30;69.30
20167;DHT22;10243;49.118;8.508;2022-07-18T07:01:49;22.40;70.20
20167;DHT22;10243;49.118;8.508;2022-07-18T07:04:51;22.50;69.80
20167;DHT22;10243;49.118;8.508;2022-07-18T07:07:53;22.60;68.40
20167;DHT22;10243;49.118;8.508;2022-07-18T07:10:56;22.60;67.40
20167;DHT22;10243;49.118;8.508;2022-07-18T07:13:58;22.60;67.70
20167;DHT22;10243;49.118;8.508;2022-07-18T07:17:00;22.70;68.30
20167;DHT22;10243;49.118;8.508;2022-07-18T07:20:03;22.90;67.40
20167;DHT22;10243;49.118;8.508;2022-07-18T07:23:06;22.90;66.80
20167;DHT22;10243;49.118;8.508;2022-07-18T07:26:10;23.00;66.80
20167;DHT22;10243;49.118;8.508;2022-07-18T07:29:12;23.10;68.10
20167;DHT22;10243;49.118;8.508;2022-07-18T07:32:15;23.20;66.60
20167;DHT22;10243;49.118;8.508;2022-07-18T07:35:18;23.30;67.20
20167;DHT22;10243;49.118;8.508;2022-07-18T07:38:21;23.40;65.50
20167;DHT22;10243;49.118;8.508;2022-07-18T07:41:29;23.50;65.90
20167;DHT22;10243;49.118;8.508;2022-07-18T07:44:31;23.50;65.10
20167;DHT22;10243;49.118;8.508;2022-07-18T07:47:34;23.50;65.40
20167;DHT22;10243;49.118;8.508;2022-07-18T07:50:36;23.70;65.40
20167;DHT22;10243;49.118;8.508;2022-07-18T07:53:38;23.80;65.80
20167;DHT22;10243;49.118;8.508;2022-07-18T07:56:42;23.90;66.00
20167;DHT22;10243;49.118;8.508;2022-07-18T07:59:44;24.10;64.30
20167;DHT22;10243;49.118;8.508;2022-07-18T08:02:53;24.20;64.00
20167;DHT22;10243;49.118;8.508;2022-07-18T08:05:56;24.30;65.00
20167;DHT22;10243;49.118;8.508;2022-07-18T08:08:58;24.50;66.30
20167;DHT22;10243;49.118;8.508;2022-07-18T08:12:01;24.60;64.90
20167;DHT22;10243;49.118;8.508;2022-07-18T08:15:04;24.70;62.50
20167;DHT22;10243;49.118;8.508;2022-07-18T08:18:06;24.70;62.50
20167;DHT22;10243;49.118;8.508;2022-07-18T08:21:08;24.70;61.60
20167;DHT22;10243;49.118;8.508;2022-07-18T08:24:10;24.80;64.10
20167;DHT22;10243;49.118;8.508;2022-07-18T08:27:13;24.90;61.90
20167;DHT22;10243;49.118;8.508;2022-07-18T08:30:16;25.00;63.50
20167;DHT22;10243;49.118;8.508;2022-07-18T08:33:18;25.10;62.50
20167;DHT22;10243;49.118;8.508;2022-07-18T08:36:20;25.20;62.40
20167;DHT22;10243;49.118;8.508;2022-07-18T08:39:22;25.30;62.20
20167;DHT22;10243;49.118;8.508;2022-07-18T08:42:26;25.30;62.10
20167;DHT22;10243;49.118;8.508;2022-07-18T08:45:28;25.40;61.80
20167;DHT22;10243;49.118;8.508;2022-07-18T08:48:30;25.60;61.10
20167;DHT22;10243;49.118;8.508;2022-07-18T08:51:34;25.60;62.80
20167;DHT22;10243;49.118;8.508;2022-07-18T08:54:36;25.60;61.00
20167;DHT22;10243;49.118;8.508;2022-07-18T08:57:40;25.80;60.60
20167;DHT22;10243;49.118;8.508;2022-07-18T09:00:41;25.80;62.70
20167;DHT22;10243;49.118;8.508;2022-07-18T09:03:43;25.80;63.80
20167;DHT22;10243;49.118;8.508;2022-07-18T09:07:06;25.90;61.50
20167;DHT22;10243;49.118;8.508;2022-07-18T09:10:09;26.10;64.30
20167;DHT22;10243;49.118;8.508;2022-07-18T09:13:13;26.00;62.90
20167;DHT22;10243;49.118;8.508;2022-07-18T09:16:15;26.20;63.40
20167;DHT22;10243;49.118;8.508;2022-07-18T09:19:17;26.30;60.90
20167;DHT22;10243;49.118;8.508;2022-07-18T09:22:24;26.40;61.00
20167;DHT22;10243;49.118;8.508;2022-07-18T09:25:32;26.50;62.80
20167;DHT22;10243;49.118;8.508;2022-07-18T09:28:50;26.60;61.80
20167;DHT22;10243;49.118;8.508;2022-07-18T09:31:53;26.40;59.80
20167;DHT22;10243;49.118;8.508;2022-07-18T09:34:55;26.60;60.10
20167;DHT22;10243;49.118;8.508;2022-07-18T09:37:59;26.60;61.30
20167;DHT22;10243;49.118;8.508;2022-07-18T09:41:02;26.40;62.50
20167;DHT22;10243;49.118;8.508;2022-07-18T09:44:15;26.30;62.50
20167;DHT22;10243;49.118;8.508;2022-07-18T09:47:17;26.30;60.80
20167;DHT22;10243;49.118;8.508;2022-07-18T09:50:22;26.50;59.70
20167;DHT22;10243;49.118;8.508;2022-07-18T09:53:25;26.70;61.10
20167;DHT22;10243;49.118;8.508;2022-07-18T09:56:30;27.20;57.90
20167;DHT22;10243;49.118;8.508;2022-07-18T09:59:36;27.50;58.20
20167;DHT22;10243;49.118;8.508;2022-07-18T10:02:38;27.50;62.10
20167;DHT22;10243;49.118;8.508;2022-07-18T10:05:42;27.50;61.60
20167;DHT22;10243;49.118;8.508;2022-07-18T10:08:44;27.40;59.70
20167;DHT22;10243;49.118;8.508;2022-07-18T10:11:46;27.50;60.00
20167;DHT22;10243;49.118;8.508;2022-07-18T10:14:50;27.60;56.40
20167;DHT22;10243;49.118;8.508;2022-07-18T10:17:53;28.00;56.60
20167;DHT22;10243;49.118;8.508;2022-07-18T10:20:58;28.10;58.90
20167;DHT22;10243;49.118;8.508;2022-07-18T10:24:01;28.20;55.40
20167;DHT22;10243;49.118;8.508;2022-07-18T10:27:14;28.20;59.00
20167;DHT22;10243;49.118;8.508;2022-07-18T10:30:30;28.30;57.70
20167;DHT22;10243;49.118;8.508;2022-07-18T10:33:40;28.30;54.80
20167;DHT22;10243;49.118;8.508;2022-07-18T10:37:07;28.20;57.50
20167;DHT22;10243;49.118;8.508;2022-07-18T10:40:25;28.40;53.00
20167;DHT22;10243;49.118;8.508;2022-07-18T10:43:35;28.60;55.70
20167;DHT22;10243;49.118;8.508;2022-07-18T10:47:04;28.50;55.70
20167;DHT22;10243;49.118;8.508;2022-07-18T10:50:07;28.60;59.80
20167;DHT22;10243;49.118;8.508;2022-07-18T10:53:09;28.70;57.20
20167;DHT22;10243;49.118;8.508;2022-07-18T10:56:11;28.70;54.10
20167;DHT22;10243;49.118;8.508;2022-07-18T10:59:17;28.70;53.40
20167;DHT22;10243;49.118;8.508;2022-07-18T11:02:30;28.80;53.60
20167;DHT22;10243;49.118;8.508;2022-07-18T11:05:33;28.90;58.10
20167;DHT22;10243;49.118;8.508;2022-07-18T11:08:36;28.90;60.50
20167;DHT22;10243;49.118;8.508;2022-07-18T11:15:20;28.80;54.80
20167;DHT22;10243;49.118;8.508;2022-07-18T11:18:24;28.80;56.50
20167;DHT22;10243;49.118;8.508;2022-07-18T11:21:27;28.80;54.80
20167;DHT22;10243;49.118;8.508;2022-07-18T11:24:30;28.80;54.90
20167;DHT22;10243;49.118;8.508;2022-07-18T11:27:31;28.90;53.30
20167;DHT22;10243;49.118;8.508;2022-07-18T11:30:35;29.10;52.40
20167;DHT22;10243;49.118;8.508;2022-07-18T11:33:40;29.50;54.20
20167;DHT22;10243;49.118;8.508;2022-07-18T11:36:44;29.50;53.40
20167;DHT22;10243;49.118;8.508;2022-07-18T11:39:46;29.50;54.30
20167;DHT22;10243;49.118;8.508;2022-07-18T11:42:49;29.60;57.80
20167;DHT22;10243;49.118;8.508;2022-07-18T11:46:05;29.60;55.00
20167;DHT22;10243;49.118;8.508;2022-07-18T11:49:09;29.70;54.40
20167;DHT22;10243;49.118;8.508;2022-07-18T11:52:11;29.60;53.10
20167;DHT22;10243;49.118;8.508;2022-07-18T11:55:13;29.60;52.20
20167;DHT22;10243;49.118;8.508;2022-07-18T11:58:16;29.70;52.20
20167;DHT22;10243;49.118;8.508;2022-07-18T12:01:19;29.70;53.30
20167;DHT22;10243;49.118;8.508;2022-07-18T12:04:23;29.70;54.50
20167;DHT22;10243;49.118;8.508;2022-07-18T12:07:26;30.00;53.10
20167;DHT22;10243;49.118;8.508;2022-07-18T12:10:28;30.10;51.50
20167;DHT22;10243;49.118;8.508;2022-07-18T12:13:42;30.10;52.20
20167;DHT22;10243;49.118;8.508;2022-07-18T12:16:47;30.20;52.90
20167;DHT22;10243;49.118;8.508;2022-07-18T12:19:50;30.30;53.50
20167;DHT22;10243;49.118;8.508;2022-07-18T12:23:08;30.40;51.40
20167;DHT22;10243;49.118;8.508;2022-07-18T12:26:26;30.40;52.50
20167;DHT22;10243;49.118;8.508;2022-07-18T12:29:28;30.30;51.60
20167;DHT22;10243;49.118;8.508;2022-07-18T12:32:37;30.40;51.10
20167;DHT22;10243;49.118;8.508;2022-07-18T12:35:40;30.60;51.50
20167;DHT22;10243;49.118;8.508;2022-07-18T12:39:00;30.60;52.90
20167;DHT22;10243;49.118;8.508;2022-07-18T12:42:02;30.50;54.20
20167;DHT22;10243;49.118;8.508;2022-07-18T12:45:09;30.60;52.00
20167;DHT22;10243;49.118;8.508;2022-07-18T12:48:12;30.60;52.00
20167;DHT22;10243;49.118;8.508;2022-07-18T12:51:16;30.50;52.60
20167;DHT22;10243;49.118;8.508;2022-07-18T12:54:18;30.60;51.20
20167;DHT22;10243;49.118;8.508;2022-07-18T12:57:20;30.70;50.60
20167;DHT22;10243;49.118;8.508;2022-07-18T13:00:22;31.00;50.40
20167;DHT22;10243;49.118;8.508;2022-07-18T13:03:24;30.90;51.30
20167;DHT22;10243;49.118;8.508;2022-07-18T13:06:27;30.80;52.20
20167;DHT22;10243;49.118;8.508;2022-07-18T13:09:29;30.80;52.20
20167;DHT22;10243;49.118;8.508;2022-07-18T13:12:31;30.90;50.50
20167;DHT22;10243;49.118;8.508;2022-07-18T13:15:34;30.90;50.30
20167;DHT22;10243;49.118;8.508;2022-07-18T13:18:36;31.20;51.30
20167;DHT22;10243;49.118;8.508;2022-07-18T13:21:40;31.20;52.40
20167;DHT22;10243;49.118;8.508;2022-07-18T13:24:42;31.10;52.40
20167;DHT22;10243;49.118;8.508;2022-07-18T13:27:44;31.10;50.40
20167;DHT22;10243;49.118;8.508;2022-07-18T13:30:46;31.10;50.80
20167;DHT22;10243;49.118;8.508;2022-07-18T13:33:48;31.10;50.60
20167;DHT22;10243;49.118;8.508;2022-07-18T13:36:53;31.20;57.70
20167;DHT22;10243;49.118;8.508;2022-07-18T13:39:55;31.20;57.20
20167;DHT22;10243;49.118;8.508;2022-07-18T13:42:57;31.20;51.70
20167;DHT22;10243;49.118;8.508;2022-07-18T13:45:59;31.10;55.10
20167;DHT22;10243;49.118;8.508;2022-07-18T13:49:01;31.00;54.10
20167;DHT22;10243;49.118;8.508;2022-07-18T13:52:05;31.20;51.20
20167;DHT22;10243;49.118;8.508;2022-07-18T13:55:07;31.30;50.20
20167;DHT22;10243;49.118;8.508;2022-07-18T13:58:09;31.50;50.40
20167;DHT22;10243;49.118;8.508;2022-07-18T14:01:12;31.60;49.60
20167;DHT22;10243;49.118;8.508;2022-07-18T14:04:14;31.60;49.30
20167;DHT22;10243;49.118;8.508;2022-07-18T14:07:17;31.60;48.80
20167;DHT22;10243;49.118;8.508;2022-07-18T14:10:19;31.70;48.90
20167;DHT22;10243;49.118;8.508;2022-07-18T14:13:21;31.80;49.10
20167;DHT22;10243;49.118;8.508;2022-07-18T14:16:23;31.80;48.60
20167;DHT22;10243;49.118;8.508;2022-07-18T14:19:25;31.90;49.50
20167;DHT22;10243;49.118;8.508;2022-07-18T14:22:28;31.90;52.30
20167;DHT22;10243;49.118;8.508;2022-07-18T14:25:30;31.80;51.20
20167;DHT22;10243;49.118;8.508;2022-07-18T14:28:33;31.80;51.60
20167;DHT22;10243;49.118;8.508;2022-07-18T14:31:34;31.90;53.80
20167;DHT22;10243;49.118;8.508;2022-07-18T14:34:36;31.80;52.50
20167;DHT22;10243;49.118;8.508;2022-07-18T14:37:40;31.90;54.90
20167;DHT22;10243;49.118;8.508;2022-07-18T14:40:41;31.90;56.60
20167;DHT22;10243;49.118;8.508;2022-07-18T14:43:43;31.80;55.00
20167;DHT22;10243;49.118;8.508;2022-07-18T14:46:45;31.80;51.30
20167;DHT22;10243;49.118;8.508;2022-07-18T14:49:47;32.00;56.40
20167;DHT22;10243;49.118;8.508;2022-07-18T14:52:51;32.10;54.80
20167;DHT22;10243;49.118;8.508;2022-07-18T14:55:53;32.20;54.50
20167;DHT22;10243;49.118;8.508;2022-07-18T14:58:55;32.30;51.50
20167;DHT22;10243;49.118;8.508;2022-07-18T15:01:56;32.40;51.10
20167;DHT22;10243;49.118;8.508;2022-07-18T15:04:59;32.50;49.00
20167;DHT22;10243;49.118;8.508;2022-07-18T15:08:03;32.50;48.20
20167;DHT22;10243;49.118;8.508;2022-07-18T15:11:05;32.50;48.50
20167;DHT22;10243;49.118;8.508;2022-07-18T15:14:07;32.50;48.70
20167;DHT22;10243;49.118;8.508;2022-07-18T15:17:09;32.50;50.00
20167;DHT22;10243;49.118;8.508;2022-07-18T15:20:11;32.50;49.70
20167;DHT22;10243;49.118;8.508;2022-07-18T15:23:14;32.60;49.50
20167;DHT22;10243;49.118;8.508;2022-07-18T15:26:16;32.60;57.90
20167;DHT22;10243;49.118;8.508;2022-07-18T15:29:18;32.60;48.40
20167;DHT22;10243;49.118;8.508;2022-07-18T15:32:20;32.70;48.60
20167;DHT22;10243;49.118;8.508;2022-07-18T15:35:22;32.70;48.10
20167;DHT22;10243;49.118;8.508;2022-07-18T15:38:25;32.80;48.60
20167;DHT22;10243;49.118;8.508;2022-07-18T15:41:27;32.80;49.10
20167;DHT22;10243;49.118;8.508;2022-07-18T15:44:30;32.80;54.50
20167;DHT22;10243;49.118;8.508;2022-07-18T15:47:37;32.80;50.40
20167;DHT22;10243;49.118;8.508;2022-07-18T15:50:39;32.90;48.10
20167;DHT22;10243;49.118;8.508;2022-07-18T15:53:43;32.90;49.00
20167;DHT22;10243;49.118;8.508;2022-07-18T15:56:45;32.90;49.00
20167;DHT22;10243;49.118;8.508;2022-07-18T15:59:47;33.00;53.40
20167;DHT22;10243;49.118;8.508;2022-07-18T16:02:49;33.10;50.90
20167;DHT22;10243;49.118;8.508;2022-07-18T16:05:51;33.10;50.70
20167;DHT22;10243;49.118;8.508;2022-07-18T16:08:58;33.30;54.30
20167;DHT22;10243;49.118;8.508;2022-07-18T16:12:00;34.20;52.00
20167;DHT22;10243;49.118;8.508;2022-07-18T16:15:02;37.10;49.90
20167;DHT22;10243;49.118;8.508;2022-07-18T16:18:04;38.70;49.50
20167;DHT22;10243;49.118;8.508;2022-07-18T16:21:06;40.00;44.60
20167;DHT22;10243;49.118;8.508;2022-07-18T16:24:10;38.20;43.60
20167;DHT22;10243;49.118;8.508;2022-07-18T16:27:12;36.80;50.30
20167;DHT22;10243;49.118;8.508;2022-07-18T16:30:14;35.70;53.00
20167;DHT22;10243;49.118;8.508;2022-07-18T16:33:15;34.80;47.20
20167;DHT22;10243;49.118;8.508;2022-07-18T16:36:17;34.20;46.40
20167;DHT22;10243;49.118;8.508;2022-07-18T16:39:21;34.00;54.30
20167;DHT22;10243;49.118;8.508;2022-07-18T16:42:23;33.80;47.50
20167;DHT22;10243;49.118;8.508;2022-07-18T16:45:25;33.70;48.40
20167;DHT22;10243;49.118;8.508;2022-07-18T16:48:28;33.60;47.20
20167;DHT22;10243;49.118;8.508;2022-07-18T16:51:30;33.50;47.30
20167;DHT22;10243;49.118;8.508;2022-07-18T16:54:34;33.50;50.60
20167;DHT22;10243;49.118;8.508;2022-07-18T16:57:37;33.50;51.20
20167;DHT22;10243;49.118;8.508;2022-07-18T17:00:39;33.50;52.40
20167;DHT22;10243;49.118;8.508;2022-07-18T17:03:42;33.40;48.40
20167;DHT22;10243;49.118;8.508;2022-07-18T17:06:44;33.40;49.70
20167;DHT22;10243;49.118;8.508;2022-07-18T17:09:48;33.40;49.10
20167;DHT22;10243;49.118;8.508;2022-07-18T17:12:50;33.30;50.20
20167;DHT22;10243;49.118;8.508;2022-07-18T17:15:52;33.30;49.20
20167;DHT22;10243;49.118;8.508;2022-07-18T17:18:54;33.20;48.70
20167;DHT22;10243;49.118;8.508;2022-07-18T17:21:57;33.20;48.90
20167;DHT22;10243;49.118;8.508;2022-07-18T17:25:00;33.20;47.20
20167;DHT22;10243;49.118;8.508;2022-07-18T17:28:03;33.10;47.20
20167;DHT22;10243;49.118;8.508;2022-07-18T17:31:05;33.20;49.60
20167;DHT22;10243;49.118;8.508;2022-07-18T17:34:08;33.10;52.80
20167;DHT22;10243;49.118;8.508;2022-07-18T17:37:10;33.00;51.60
20167;DHT22;10243;49.118;8.508;2022-07-18T17:40:14;32.90;49.00
20167;DHT22;10243;49.118;8.508;2022-07-18T17:43:16;32.90;48.50
20167;DHT22;10243;49.118;8.508;2022-07-18T17:46:19;32.80;49.60
20167;DHT22;10243;49.118;8.508;2022-07-18T17:49:24;32.80;49.40
20167;DHT22;10243;49.118;8.508;2022-07-18T17:52:26;32.70;52.70
20167;DHT22;10243;49.118;8.508;2022-07-18T17:55:30;32.50;53.80
20167;DHT22;10243;49.118;8.508;2022-07-18T17:58:32;32.50;49.60
20167;DHT22;10243;49.118;8.508;2022-07-18T18:01:34;32.50;50.10
20167;DHT22;10243;49.118;8.508;2022-07-18T18:04:36;32.40;54.90
20167;DHT22;10243;49.118;8.508;2022-07-18T18:07:40;32.30;51.30
20167;DHT22;10243;49.118;8.508;2022-07-18T18:10:43;32.10;55.10
20167;DHT22;10243;49.118;8.508;2022-07-18T18:13:45;32.10;54.60
20167;DHT22;10243;49.118;8.508;2022-07-18T18:16:47;31.90;54.10
20167;DHT22;10243;49.118;8.508;2022-07-18T18:19:49;31.80;55.60
20167;DHT22;10243;49.118;8.508;2022-07-18T18:22:51;31.60;55.50
20167;DHT22;10243;49.118;8.508;2022-07-18T18:25:54;31.50;55.10
20167;DHT22;10243;49.118;8.508;2022-07-18T18:28:56;31.40;57.60
20167;DHT22;10243;49.118;8.508;2022-07-18T18:31:58;31.30;59.50
20167;DHT22;10243;49.118;8.508;2022-07-18T18:35:00;31.10;57.10
20167;DHT22;10243;49.118;8.508;2022-07-18T18:38:02;30.90;59.30
20167;DHT22;10243;49.118;8.508;2022-07-18T18:41:05;30.60;62.00
20167;DHT22;10243;49.118;8.508;2022-07-18T18:44:07;30.40;60.90
20167;DHT22;10243;49.118;8.508;2022-07-18T18:47:09;30.20;60.60
20167;DHT22;10243;49.118;8.508;2022-07-18T18:50:11;30.10;56.90
20167;DHT22;10243;49.118;8.508;2022-07-18T18:53:13;30.00;64.60
20167;DHT22;10243;49.118;8.508;2022-07-18T18:56:17;29.90;54.80
20167;DHT22;10243;49.118;8.508;2022-07-18T18:59:19;29.80;58.40
20167;DHT22;10243;49.118;8.508;2022-07-18T19:02:20;29.70;63.10
20167;DHT22;10243;49.118;8.508;2022-07-18T19:05:23;29.30;65.20
20167;DHT22;10243;49.118;8.508;2022-07-18T19:08:25;29.00;64.20
20167;DHT22;10243;49.118;8.508;2022-07-18T19:11:29;28.70;64.30
20167;DHT22;10243;49.118;8.508;2022-07-18T19:14:31;28.40;65.80
20167;DHT22;10243;49.118;8.508;2022-07-18T19:17:33;28.20;63.70
20167;DHT22;10243;49.118;8.508;2022-07-18T19:20:35;28.00;68.00